createdAt,value
2017-09-22T00:00:51.392Z,8.47
2017-09-22T00:01:51.391Z,8.47
2017-09-22T00:02:51.389Z,8.49
2017-09-22T00:03:51.404Z,8.49
2017-09-22T00:04:51.300Z,8.50
2017-09-22T00:05:51.344Z,8.51
2017-09-22T00:06:51.345Z,8.51
2017-09-22T00:07:51.350Z,8.51
2017-09-22T00:08:51.398Z,8.51
2017-09-22T00:09:51.353Z,8.51
2017-09-22T00:10:51.410Z,8.54
2017-09-22T00:11:51.345Z,8.51
2017-09-22T00:12:51.398Z,8.53
2017-09-22T00:13:51.401Z,8.54
2017-09-22T00:14:51.352Z,8.51
2017-09-22T00:15:51.418Z,8.53
2017-09-22T00:16:51.354Z,8.51
2017-09-22T00:17:51.419Z,8.51
2017-09-22T00:18:51.417Z,8.51
2017-09-22T00:19:51.360Z,8.51
2017-09-22T00:20:51.299Z,8.51
2017-09-22T00:21:51.273Z,8.51
2017-09-22T00:22:51.316Z,8.51
2017-09-22T00:23:51.359Z,8.51
2017-09-22T00:24:51.314Z,8.51
2017-09-22T00:25:51.326Z,8.53
2017-09-22T00:26:51.297Z,8.53
2017-09-22T00:27:51.308Z,8.53
2017-09-22T00:28:51.365Z,8.53
2017-09-22T00:29:51.367Z,8.53
2017-09-22T00:30:51.325Z,8.54
2017-09-22T00:31:51.369Z,8.54
2017-09-22T00:32:51.354Z,8.54
2017-09-22T00:33:51.326Z,8.54
2017-09-22T00:34:51.396Z,8.54
2017-09-22T00:35:51.355Z,8.56
2017-09-22T00:36:51.396Z,8.56
2017-09-22T00:37:51.375Z,8.56
2017-09-22T00:38:51.406Z,8.57
2017-09-22T00:39:51.377Z,8.54
2017-09-22T00:40:51.407Z,8.54
2017-09-22T00:41:51.368Z,8.53
2017-09-22T00:42:51.363Z,8.51
2017-09-22T00:43:51.365Z,8.53
2017-09-22T00:44:51.367Z,8.50
2017-09-22T00:45:51.368Z,8.50
2017-09-22T00:46:51.373Z,8.50
2017-09-22T00:47:51.417Z,8.47
2017-09-22T00:48:51.416Z,8.46
2017-09-22T00:49:51.369Z,8.45
2017-09-22T00:50:51.420Z,8.45
2017-09-22T00:51:51.419Z,8.45
2017-09-22T00:52:51.436Z,8.45
2017-09-22T00:53:51.380Z,8.46
2017-09-22T00:54:51.381Z,8.46
2017-09-22T00:55:51.436Z,8.45
2017-09-22T00:56:51.377Z,8.45
2017-09-22T00:57:51.426Z,8.45
2017-09-22T00:58:51.378Z,8.45
2017-09-22T00:59:51.463Z,8.45
2017-09-22T01:00:51.338Z,8.45
2017-09-22T01:01:51.394Z,8.45
2017-09-22T01:02:51.314Z,8.45
2017-09-22T01:03:51.347Z,8.46
2017-09-22T01:04:51.349Z,8.46
2017-09-22T01:05:51.397Z,8.45
2017-09-22T01:06:51.349Z,8.45
2017-09-22T01:07:51.344Z,8.43
2017-09-22T01:08:51.318Z,8.43
2017-09-22T01:09:51.348Z,8.38
2017-09-22T01:10:51.428Z,8.35
2017-09-22T01:11:51.348Z,8.35
2017-09-22T01:12:51.377Z,8.34
2017-09-22T01:13:51.488Z,8.33
2017-09-22T01:14:51.429Z,8.27
2017-09-22T01:15:51.384Z,8.27
2017-09-22T01:16:51.386Z,8.26
2017-09-22T01:17:51.386Z,8.24
2017-09-22T01:18:51.431Z,8.24
2017-09-22T01:19:51.428Z,8.24
2017-09-22T01:20:51.394Z,8.26
2017-09-22T01:21:51.384Z,8.26
2017-09-22T01:22:51.425Z,8.24
2017-09-22T01:23:51.364Z,8.23
2017-09-22T01:24:51.349Z,8.24
2017-09-22T01:25:51.420Z,8.26
2017-09-22T01:26:51.387Z,8.28
2017-09-22T01:27:51.367Z,8.26
2017-09-22T01:28:51.386Z,8.27
2017-09-22T01:29:51.384Z,8.26
2017-09-22T01:30:51.395Z,8.24
2017-09-22T01:31:51.404Z,8.23
2017-09-22T01:32:51.458Z,8.23
2017-09-22T01:33:51.457Z,8.22
2017-09-22T01:34:51.458Z,8.22
2017-09-22T01:35:51.458Z,8.19
2017-09-22T01:36:51.448Z,8.16
2017-09-22T01:37:51.483Z,8.13
2017-09-22T01:38:51.409Z,8.12
2017-09-22T01:39:51.462Z,8.12
2017-09-22T01:40:51.273Z,8.11
2017-09-22T01:41:51.336Z,8.09
2017-09-22T01:42:51.327Z,8.08
2017-09-22T01:43:51.325Z,8.04
2017-09-22T01:44:51.281Z,8.05
2017-09-22T01:45:51.328Z,8.04
2017-09-22T01:46:51.341Z,8.04
2017-09-22T01:47:51.328Z,8.02
2017-09-22T01:48:51.446Z,8.04
2017-09-22T01:49:51.283Z,8.01
2017-09-22T01:50:51.366Z,7.97
2017-09-22T01:51:51.369Z,7.95
2017-09-22T01:52:51.400Z,7.95
2017-09-22T01:53:51.406Z,7.95
2017-09-22T01:54:51.370Z,7.97
2017-09-22T01:55:51.344Z,7.98
2017-09-22T01:56:51.374Z,7.98
2017-09-22T01:57:51.379Z,7.97
2017-09-22T01:58:51.404Z,7.97
2017-09-22T01:59:51.346Z,7.97
2017-09-22T02:00:51.381Z,7.93
2017-09-22T02:01:51.450Z,7.90
2017-09-22T02:02:51.384Z,7.89
2017-09-22T02:03:51.361Z,7.89
2017-09-22T02:04:51.404Z,7.90
2017-09-22T02:05:51.418Z,7.90
2017-09-22T02:06:51.359Z,7.90
2017-09-22T02:07:51.386Z,7.89
2017-09-22T02:08:51.367Z,7.90
2017-09-22T02:09:51.416Z,7.89
2017-09-22T02:10:51.394Z,7.87
2017-09-22T02:11:51.413Z,7.86
2017-09-22T02:12:51.363Z,7.85
2017-09-22T02:13:51.461Z,7.86
2017-09-22T02:14:51.413Z,7.85
2017-09-22T02:15:51.395Z,7.87
2017-09-22T02:16:51.435Z,7.86
2017-09-22T02:17:51.428Z,7.86
2017-09-22T02:18:51.417Z,7.87
2017-09-22T02:19:51.371Z,7.87
2017-09-22T02:20:51.470Z,7.86
2017-09-22T02:21:51.421Z,7.85
2017-09-22T02:22:51.419Z,7.83
2017-09-22T02:23:51.406Z,7.85
2017-09-22T02:24:51.469Z,7.86
2017-09-22T02:25:51.489Z,7.87
2017-09-22T02:26:51.475Z,7.86
2017-09-22T02:27:51.430Z,7.86
2017-09-22T02:28:51.427Z,7.86
2017-09-22T02:29:51.438Z,7.85
2017-09-22T02:30:51.431Z,7.86
2017-09-22T02:31:51.436Z,7.85
2017-09-22T02:32:51.414Z,7.83
2017-09-22T02:33:51.480Z,7.83
2017-09-22T02:34:51.496Z,7.83
2017-09-22T02:35:51.430Z,7.82
2017-09-22T02:36:51.481Z,7.79
2017-09-22T02:37:51.431Z,7.75
2017-09-22T02:38:51.433Z,7.75
2017-09-22T02:39:51.449Z,7.75
2017-09-22T02:40:51.435Z,7.76
2017-09-22T02:41:51.436Z,7.76
2017-09-22T02:42:51.435Z,7.76
2017-09-22T02:43:51.434Z,7.75
2017-09-22T02:44:51.438Z,7.75
2017-09-22T02:45:51.435Z,7.71
2017-09-22T02:46:51.503Z,7.68
2017-09-22T02:47:51.443Z,7.67
2017-09-22T02:48:51.510Z,7.68
2017-09-22T02:49:51.493Z,7.65
2017-09-22T02:50:51.393Z,7.64
2017-09-22T02:51:51.372Z,7.64
2017-09-22T02:52:51.385Z,7.65
2017-09-22T02:53:51.387Z,7.65
2017-09-22T02:54:51.325Z,7.65
2017-09-22T02:55:51.368Z,7.65
2017-09-22T02:56:51.400Z,7.64
2017-09-22T02:57:51.388Z,7.63
2017-09-22T02:58:51.375Z,7.64
2017-09-22T02:59:51.371Z,7.65
2017-09-22T03:00:51.458Z,7.64
2017-09-22T03:01:51.484Z,7.63
2017-09-22T03:02:51.449Z,7.65
2017-09-22T03:03:51.493Z,7.63
2017-09-22T03:04:51.463Z,7.60
2017-09-22T03:05:51.466Z,7.63
2017-09-22T03:06:51.455Z,7.58
2017-09-22T03:07:51.454Z,7.55
2017-09-22T03:08:51.521Z,7.55
2017-09-22T03:09:51.504Z,7.53
2017-09-22T03:10:51.392Z,7.58
2017-09-22T03:11:51.391Z,7.58
2017-09-22T03:12:51.447Z,7.59
2017-09-22T03:13:51.456Z,7.58
2017-09-22T03:14:51.415Z,7.60
2017-09-22T03:15:51.424Z,7.59
2017-09-22T03:16:51.423Z,7.60
2017-09-22T03:17:51.473Z,7.60
2017-09-22T03:18:51.396Z,7.60
2017-09-22T03:19:51.397Z,7.60
2017-09-22T03:20:51.398Z,7.63
2017-09-22T03:21:51.424Z,7.65
2017-09-22T03:22:51.431Z,7.64
2017-09-22T03:23:51.398Z,7.64
2017-09-22T03:24:51.424Z,7.64
2017-09-22T03:25:51.397Z,7.67
2017-09-22T03:26:51.425Z,7.67
2017-09-22T03:27:51.431Z,7.67
2017-09-22T03:28:51.430Z,7.67
2017-09-22T03:29:51.474Z,7.68
2017-09-22T03:30:51.466Z,7.70
2017-09-22T03:31:51.509Z,7.68
2017-09-22T03:32:51.538Z,7.71
2017-09-22T03:33:51.512Z,7.74
2017-09-22T03:34:51.472Z,7.74
2017-09-22T03:35:51.463Z,7.76
2017-09-22T03:36:51.467Z,7.75
2017-09-22T03:37:51.484Z,7.75
2017-09-22T03:38:51.518Z,7.75
2017-09-22T03:39:51.473Z,7.75
2017-09-22T03:40:51.521Z,7.76
2017-09-22T03:41:51.520Z,7.76
2017-09-22T03:42:51.490Z,7.75
2017-09-22T03:43:51.517Z,7.78
2017-09-22T03:44:51.418Z,7.78
2017-09-22T03:45:51.499Z,7.78
2017-09-22T03:46:51.528Z,7.78
2017-09-22T03:47:51.521Z,7.79
2017-09-22T03:48:51.544Z,7.81
2017-09-22T03:49:51.521Z,7.79
2017-09-22T03:50:51.500Z,7.76
2017-09-22T03:51:51.525Z,7.75
2017-09-22T03:52:51.480Z,7.75
2017-09-22T03:53:51.478Z,7.72
2017-09-22T03:54:51.477Z,7.70
2017-09-22T03:55:51.479Z,7.71
2017-09-22T03:56:51.524Z,7.72
2017-09-22T03:57:51.550Z,7.75
2017-09-22T03:58:51.529Z,7.75
2017-09-22T03:59:51.534Z,7.76
2017-09-22T04:00:51.526Z,7.78
2017-09-22T04:01:51.533Z,7.78
2017-09-22T04:02:51.479Z,7.79
2017-09-22T04:03:51.529Z,7.79
2017-09-22T04:04:51.523Z,7.81
2017-09-22T04:05:51.456Z,7.82
2017-09-22T04:06:51.491Z,7.82
2017-09-22T04:07:51.486Z,7.82
2017-09-22T04:08:51.533Z,7.83
2017-09-22T04:09:51.461Z,7.83
2017-09-22T04:10:51.485Z,7.83
2017-09-22T04:11:51.557Z,7.83
2017-09-22T04:12:51.533Z,7.86
2017-09-22T04:13:51.491Z,7.85
2017-09-22T04:14:51.539Z,7.87
2017-09-22T04:15:51.492Z,7.89
2017-09-22T04:16:51.519Z,7.89
2017-09-22T04:17:51.535Z,7.87
2017-09-22T04:18:51.506Z,7.86
2017-09-22T04:19:51.539Z,7.85
2017-09-22T04:20:51.542Z,7.83
2017-09-22T04:21:51.541Z,7.85
2017-09-22T04:22:51.545Z,7.85
2017-09-22T04:23:51.497Z,7.83
2017-09-22T04:24:51.571Z,7.85
2017-09-22T04:25:51.495Z,7.85
2017-09-22T04:26:51.498Z,7.86
2017-09-22T04:27:51.494Z,7.83
2017-09-22T04:28:51.506Z,7.85
2017-09-22T04:29:51.543Z,7.86
2017-09-22T04:30:51.530Z,7.86
2017-09-22T04:31:51.514Z,7.87
2017-09-22T04:32:51.626Z,7.86
2017-09-22T04:33:51.536Z,7.87
2017-09-22T04:34:51.476Z,7.89
2017-09-22T04:35:51.499Z,7.89
2017-09-22T04:36:51.474Z,7.89
2017-09-22T04:37:51.517Z,7.89
2017-09-22T04:38:51.548Z,7.90
2017-09-22T04:39:51.450Z,7.90
2017-09-22T04:40:51.536Z,7.90
2017-09-22T04:41:51.506Z,7.93
2017-09-22T04:42:51.556Z,7.95
2017-09-22T04:43:51.473Z,7.97
2017-09-22T04:44:51.490Z,7.97
2017-09-22T04:45:51.561Z,7.95
2017-09-22T04:46:51.556Z,7.95
2017-09-22T04:47:51.667Z,7.93
2017-09-22T04:48:51.562Z,7.92
2017-09-22T04:49:51.523Z,7.92
2017-09-22T04:50:51.513Z,7.93
2017-09-22T04:51:51.479Z,7.97
2017-09-22T04:52:51.517Z,7.97
2017-09-22T04:53:51.480Z,7.97
2017-09-22T04:54:51.477Z,7.98
2017-09-22T04:55:51.477Z,7.98
2017-09-22T04:56:51.454Z,7.99
2017-09-22T04:57:51.454Z,7.99
2017-09-22T04:58:51.530Z,7.99
2017-09-22T04:59:51.482Z,7.93
2017-09-22T05:00:51.480Z,7.95
2017-09-22T05:01:51.547Z,7.93
2017-09-22T05:02:51.515Z,7.95
2017-09-22T05:03:51.516Z,7.97
2017-09-22T05:04:51.488Z,7.98
2017-09-22T05:05:51.565Z,7.95
2017-09-22T05:06:51.535Z,7.95
2017-09-22T05:07:51.559Z,7.98
2017-09-22T05:08:51.565Z,7.95
2017-09-22T05:09:51.487Z,7.98
2017-09-22T05:10:51.423Z,7.99
2017-09-22T05:11:51.427Z,7.98
2017-09-22T05:12:51.424Z,7.98
2017-09-22T05:13:51.426Z,7.97
2017-09-22T05:14:51.427Z,7.92
2017-09-22T05:15:51.430Z,7.92
2017-09-22T05:16:51.428Z,7.90
2017-09-22T05:17:51.429Z,7.90
2017-09-22T05:18:51.431Z,7.90
2017-09-22T05:19:51.431Z,7.89
2017-09-22T05:20:51.529Z,7.87
2017-09-22T05:21:51.467Z,7.87
2017-09-22T05:22:51.494Z,7.90
2017-09-22T05:23:51.530Z,7.90
2017-09-22T05:24:51.597Z,7.90
2017-09-22T05:25:51.497Z,7.90
2017-09-22T05:26:51.485Z,7.89
2017-09-22T05:27:51.494Z,7.86
2017-09-22T05:28:51.498Z,7.86
2017-09-22T05:29:51.534Z,7.86
2017-09-22T05:30:51.531Z,7.87
2017-09-22T05:31:51.530Z,7.86
2017-09-22T05:32:51.530Z,7.86
2017-09-22T05:33:51.514Z,7.85
2017-09-22T05:34:51.549Z,7.86
2017-09-22T05:35:51.531Z,7.87
2017-09-22T05:36:51.484Z,7.89
2017-09-22T05:37:51.479Z,7.87
2017-09-22T05:38:51.516Z,7.86
2017-09-22T05:39:51.583Z,7.89
2017-09-22T05:40:51.586Z,7.87
2017-09-22T05:41:51.544Z,7.89
2017-09-22T05:42:51.522Z,7.89
2017-09-22T05:43:51.593Z,7.90
2017-09-22T05:44:51.538Z,7.90
2017-09-22T05:45:51.547Z,7.89
2017-09-22T05:46:51.512Z,7.90
2017-09-22T05:47:51.547Z,7.90
2017-09-22T05:48:51.590Z,7.92
2017-09-22T05:49:51.544Z,7.92
2017-09-22T05:50:51.494Z,7.89
2017-09-22T05:51:51.498Z,7.89
2017-09-22T05:52:51.550Z,7.89
2017-09-22T05:53:51.549Z,7.89
2017-09-22T05:54:51.579Z,7.90
2017-09-22T05:55:51.596Z,7.89
2017-09-22T05:56:51.546Z,7.92
2017-09-22T05:57:51.596Z,7.92
2017-09-22T05:58:51.600Z,7.93
2017-09-22T05:59:51.551Z,7.90
2017-09-22T06:00:51.500Z,7.89
2017-09-22T06:01:51.549Z,7.89
2017-09-22T06:02:51.505Z,7.89
2017-09-22T06:03:51.612Z,7.89
2017-09-22T06:04:51.597Z,7.90
2017-09-22T06:05:51.610Z,7.92
2017-09-22T06:06:51.534Z,7.95
2017-09-22T06:07:51.554Z,7.93
2017-09-22T06:08:51.540Z,7.92
2017-09-22T06:09:51.560Z,7.90
2017-09-22T06:10:51.605Z,7.93
2017-09-22T06:11:51.584Z,7.93
2017-09-22T06:12:51.509Z,7.95
2017-09-22T06:13:51.585Z,7.93
2017-09-22T06:14:51.634Z,7.98
2017-09-22T06:15:51.562Z,7.97
2017-09-22T06:16:51.562Z,7.97
2017-09-22T06:17:51.612Z,7.98
2017-09-22T06:18:51.608Z,8.01
2017-09-22T06:19:51.574Z,8.02
2017-09-22T06:20:51.507Z,8.01
2017-09-22T06:21:51.576Z,8.02
2017-09-22T06:22:51.540Z,8.06
2017-09-22T06:23:51.571Z,8.11
2017-09-22T06:24:51.514Z,8.06
2017-09-22T06:26:51.511Z,8.04
2017-09-22T06:27:51.538Z,7.99
2017-09-22T06:28:51.517Z,7.99
2017-09-22T06:29:51.552Z,7.99
2017-09-22T06:30:51.579Z,7.97
2017-09-22T06:31:51.565Z,7.97
2017-09-22T06:32:51.597Z,7.95
2017-09-22T06:33:51.571Z,7.97
2017-09-22T06:34:51.568Z,7.98
2017-09-22T06:35:51.577Z,7.95
2017-09-22T06:36:51.554Z,7.98
2017-09-22T06:37:51.623Z,7.99
2017-09-22T06:38:51.574Z,8.01
2017-09-22T06:39:51.573Z,7.99
2017-09-22T06:40:51.526Z,7.95
2017-09-22T06:41:51.575Z,7.92
2017-09-22T06:42:51.530Z,7.97
2017-09-22T06:43:51.538Z,7.99
2017-09-22T06:44:51.621Z,8.04
2017-09-22T06:45:51.543Z,8.02
2017-09-22T06:46:51.586Z,8.05
2017-09-22T06:47:51.585Z,8.08
2017-09-22T06:48:51.630Z,8.13
2017-09-22T06:49:51.660Z,8.13
2017-09-22T06:50:51.647Z,8.15
2017-09-22T06:51:51.583Z,8.17
2017-09-22T06:52:51.635Z,8.13
2017-09-22T06:53:51.614Z,8.13
2017-09-22T06:54:51.590Z,8.13
2017-09-22T06:56:51.567Z,8.11
2017-09-22T06:57:51.639Z,8.09
2017-09-22T06:58:51.628Z,8.06
2017-09-22T06:59:51.635Z,8.05
2017-09-22T07:00:51.551Z,8.06
2017-09-22T07:01:51.523Z,8.12
2017-09-22T07:02:51.525Z,8.15
2017-09-22T07:03:51.584Z,8.15
2017-09-22T07:04:51.554Z,8.15
2017-09-22T07:05:51.586Z,8.15
2017-09-22T07:06:51.557Z,8.17
2017-09-22T07:07:51.585Z,8.15
2017-09-22T07:08:51.526Z,8.15
2017-09-22T07:09:51.526Z,8.13
2017-09-22T07:10:51.537Z,8.15
2017-09-22T07:11:51.518Z,8.15
2017-09-22T07:12:51.531Z,8.15
2017-09-22T07:13:51.586Z,8.15
2017-09-22T07:14:51.512Z,8.17
2017-09-22T07:15:51.516Z,8.20
2017-09-22T07:16:51.515Z,8.20
2017-09-22T07:17:51.509Z,8.20
2017-09-22T07:18:51.544Z,8.22
2017-09-22T07:20:51.537Z,8.28
2017-09-22T07:21:51.565Z,8.31
2017-09-22T07:22:51.594Z,8.31
2017-09-22T07:23:51.574Z,8.33
2017-09-22T07:24:51.565Z,8.33
2017-09-22T07:25:51.538Z,8.34
2017-09-22T07:26:51.600Z,8.37
2017-09-22T07:27:51.539Z,8.42
2017-09-22T07:28:51.539Z,8.45
2017-09-22T07:29:51.568Z,8.50
2017-09-22T07:30:51.553Z,8.54
2017-09-22T07:31:51.561Z,8.56
2017-09-22T07:32:51.545Z,8.57
2017-09-22T07:33:51.573Z,8.62
2017-09-22T07:34:51.591Z,8.71
2017-09-22T07:35:51.616Z,8.69
2017-09-22T07:36:51.563Z,8.75
2017-09-22T07:37:51.572Z,8.79
2017-09-22T07:38:51.553Z,8.78
2017-09-22T07:39:51.528Z,8.80
2017-09-22T07:40:51.571Z,8.86
2017-09-22T07:41:51.641Z,8.90
2017-09-22T07:42:51.668Z,8.91
2017-09-22T07:43:51.610Z,8.97
2017-09-22T07:44:51.613Z,9.00
2017-09-22T07:45:51.621Z,9.09
2017-09-22T07:46:51.667Z,9.19
2017-09-22T07:47:51.666Z,9.22
2017-09-22T07:48:51.682Z,9.25
2017-09-22T07:49:51.657Z,9.27
2017-09-22T07:50:51.667Z,9.19
2017-09-22T07:51:51.626Z,9.28
2017-09-22T07:52:51.647Z,9.38
2017-09-22T07:53:51.652Z,9.62
2017-09-22T07:54:51.655Z,9.87
2017-09-22T07:55:51.562Z,10.14
2017-09-22T07:56:51.648Z,10.24
2017-09-22T07:57:51.581Z,10.27
2017-09-22T07:58:51.650Z,10.34
2017-09-22T07:59:51.621Z,10.49
2017-09-22T08:00:51.620Z,10.60
2017-09-22T08:01:51.573Z,10.64
2017-09-22T08:02:51.579Z,10.61
2017-09-22T08:03:51.703Z,10.63
2017-09-22T08:04:51.580Z,10.71
2017-09-22T08:05:51.627Z,10.68
2017-09-22T08:06:51.693Z,10.57
2017-09-22T08:07:51.635Z,10.35
2017-09-22T08:08:51.595Z,10.23
2017-09-22T08:09:51.627Z,10.27
2017-09-22T08:10:51.682Z,10.35
2017-09-22T08:11:51.642Z,10.36
2017-09-22T08:12:51.595Z,10.45
2017-09-22T08:13:51.609Z,10.47
2017-09-22T08:14:51.610Z,10.42
2017-09-22T08:15:51.604Z,10.38
2017-09-22T08:16:51.666Z,10.31
2017-09-22T08:17:51.572Z,10.28
2017-09-22T08:18:51.679Z,10.25
2017-09-22T08:19:51.627Z,10.32
2017-09-22T08:20:51.641Z,10.35
2017-09-22T08:21:51.598Z,10.50
2017-09-22T08:22:51.585Z,10.54
2017-09-22T08:23:51.599Z,10.50
2017-09-22T08:24:51.548Z,10.65
2017-09-22T08:25:51.557Z,10.84
2017-09-22T08:26:51.603Z,11.05
2017-09-22T08:27:51.579Z,11.06
2017-09-22T08:28:51.529Z,11.05
2017-09-22T08:29:51.641Z,11.10
2017-09-22T08:30:51.590Z,11.13
2017-09-22T08:31:51.628Z,11.14
2017-09-22T08:32:51.685Z,11.16
2017-09-22T08:33:51.646Z,11.20
2017-09-22T08:34:51.644Z,11.28
2017-09-22T08:35:51.651Z,11.32
2017-09-22T08:36:51.693Z,11.31
2017-09-22T08:37:51.644Z,11.38
2017-09-22T08:38:51.648Z,11.43
2017-09-22T08:39:51.595Z,11.57
2017-09-22T08:40:51.595Z,11.64
2017-09-22T08:41:51.594Z,11.73
2017-09-22T08:42:51.599Z,11.79
2017-09-22T08:43:51.617Z,11.83
2017-09-22T08:44:51.598Z,11.82
2017-09-22T08:45:51.633Z,11.89
2017-09-22T08:46:51.614Z,11.75
2017-09-22T08:47:51.615Z,11.75
2017-09-22T08:48:51.680Z,11.84
2017-09-22T08:49:51.656Z,11.98
2017-09-22T08:50:51.655Z,11.98
2017-09-22T08:51:51.666Z,12.01
2017-09-22T08:52:51.683Z,11.98
2017-09-22T08:53:51.701Z,11.92
2017-09-22T08:54:51.709Z,11.92
2017-09-22T08:55:51.634Z,12.01
2017-09-22T08:56:51.658Z,12.03
2017-09-22T08:57:51.635Z,12.10
2017-09-22T08:58:51.623Z,12.16
2017-09-22T08:59:51.666Z,12.28
2017-09-22T09:00:51.625Z,12.16
2017-09-22T09:01:51.603Z,12.12
2017-09-22T09:02:51.643Z,12.12
2017-09-22T09:03:51.623Z,12.13
2017-09-22T09:04:51.672Z,12.12
2017-09-22T09:05:51.706Z,12.22
2017-09-22T09:06:51.670Z,12.25
2017-09-22T09:07:51.625Z,12.26
2017-09-22T09:08:51.709Z,12.40
2017-09-22T09:09:51.663Z,12.55
2017-09-22T09:10:51.623Z,12.69
2017-09-22T09:11:51.645Z,12.75
2017-09-22T09:12:51.610Z,12.89
2017-09-22T09:13:51.649Z,13.00
2017-09-22T09:14:51.618Z,13.16
2017-09-22T09:15:51.666Z,13.29
2017-09-22T09:16:51.701Z,13.27
2017-09-22T09:17:51.619Z,13.24
2017-09-22T09:18:51.637Z,13.31
2017-09-22T09:19:51.609Z,13.42
2017-09-22T09:20:51.671Z,13.59
2017-09-22T09:21:51.653Z,13.54
2017-09-22T09:22:51.654Z,13.57
2017-09-22T09:23:51.721Z,13.57
2017-09-22T09:24:51.630Z,13.49
2017-09-22T09:25:51.631Z,13.53
2017-09-22T09:26:51.656Z,13.57
2017-09-22T09:27:51.674Z,13.66
2017-09-22T09:28:51.724Z,13.80
2017-09-22T09:29:51.656Z,13.96
2017-09-22T09:30:51.634Z,14.14
2017-09-22T09:31:51.727Z,14.28
2017-09-22T09:32:51.658Z,14.36
2017-09-22T09:33:51.649Z,14.40
2017-09-22T09:34:51.733Z,14.33
2017-09-22T09:35:51.731Z,14.28
2017-09-22T09:36:51.727Z,14.17
2017-09-22T09:37:51.731Z,14.09
2017-09-22T09:38:51.642Z,14.04
2017-09-22T09:39:51.633Z,14.04
2017-09-22T09:40:51.711Z,14.04
2017-09-22T09:41:51.678Z,14.02
2017-09-22T09:42:51.682Z,14.15
2017-09-22T09:43:51.665Z,14.22
2017-09-22T09:44:51.626Z,14.09
2017-09-22T09:45:51.731Z,14.02
2017-09-22T09:46:51.726Z,14.00
2017-09-22T09:47:51.715Z,14.03
2017-09-22T09:48:51.660Z,14.07
2017-09-22T09:49:51.659Z,14.10
2017-09-22T09:50:51.702Z,14.18
2017-09-22T09:51:51.639Z,14.25
2017-09-22T09:52:51.696Z,14.40
2017-09-22T09:53:51.636Z,14.46
2017-09-22T09:54:51.653Z,14.57
2017-09-22T09:55:51.703Z,14.66
2017-09-22T09:56:51.600Z,14.80
2017-09-22T09:57:51.641Z,14.91
2017-09-22T09:58:51.666Z,15.02
2017-09-22T09:59:51.689Z,14.95
2017-09-22T10:00:51.659Z,14.80
2017-09-22T10:01:51.637Z,14.86
2017-09-22T10:02:51.659Z,14.98
2017-09-22T10:03:51.661Z,15.04
2017-09-22T10:04:51.639Z,15.13
2017-09-22T10:05:51.692Z,15.18
2017-09-22T10:06:51.737Z,15.07
2017-09-22T10:07:51.736Z,15.02
2017-09-22T10:08:51.665Z,15.18
2017-09-22T10:09:51.677Z,15.31
2017-09-22T10:10:51.704Z,15.47
2017-09-22T10:11:51.746Z,15.59
2017-09-22T10:12:51.746Z,15.69
2017-09-22T10:13:51.677Z,15.75
2017-09-22T10:14:51.681Z,15.95
2017-09-22T10:15:51.698Z,16.10
2017-09-22T10:16:51.667Z,16.18
2017-09-22T10:17:51.871Z,16.33
2017-09-22T10:18:51.710Z,16.54
2017-09-22T10:19:51.684Z,16.68
2017-09-22T10:20:51.718Z,16.57
2017-09-22T10:21:51.644Z,16.43
2017-09-22T10:22:51.670Z,16.58
2017-09-22T10:23:51.648Z,16.59
2017-09-22T10:24:51.668Z,16.85
2017-09-22T10:25:51.649Z,17.16
2017-09-22T10:26:51.646Z,17.31
2017-09-22T10:27:51.776Z,17.60
2017-09-22T10:28:51.675Z,17.54
2017-09-22T10:29:51.712Z,17.44
2017-09-22T10:30:51.676Z,17.65
2017-09-22T10:31:51.653Z,17.61
2017-09-22T10:32:51.701Z,17.64
2017-09-22T10:33:51.670Z,17.75
2017-09-22T10:34:51.653Z,17.87
2017-09-22T10:35:51.630Z,17.76
2017-09-22T10:36:51.654Z,17.83
2017-09-22T10:37:51.666Z,18.03
2017-09-22T10:38:51.664Z,18.10
2017-09-22T10:39:51.657Z,18.18
2017-09-22T10:40:51.663Z,18.16
2017-09-22T10:41:51.698Z,18.24
2017-09-22T10:42:51.765Z,18.25
2017-09-22T10:43:51.772Z,17.95
2017-09-22T10:44:51.766Z,17.80
2017-09-22T10:45:51.730Z,17.99
2017-09-22T10:46:51.702Z,18.07
2017-09-22T10:47:51.722Z,18.16
2017-09-22T10:48:51.723Z,18.32
2017-09-22T10:49:51.732Z,18.51
2017-09-22T10:50:51.774Z,18.46
2017-09-22T10:51:51.733Z,18.43
2017-09-22T10:52:51.771Z,18.36
2017-09-22T10:53:51.727Z,18.48
2017-09-22T10:54:51.724Z,18.48
2017-09-22T10:55:51.726Z,18.54
2017-09-22T10:56:51.794Z,18.54
2017-09-22T10:57:51.706Z,18.27
2017-09-22T10:58:51.674Z,18.10
2017-09-22T10:59:51.729Z,18.07
2017-09-22T11:00:51.696Z,18.05
2017-09-22T11:01:51.731Z,17.98
2017-09-22T11:02:51.739Z,18.06
2017-09-22T11:03:51.675Z,17.98
2017-09-22T11:04:51.740Z,17.94
2017-09-22T11:05:51.730Z,17.92
2017-09-22T11:07:51.760Z,17.89
2017-09-22T11:08:51.743Z,17.99
2017-09-22T11:09:51.746Z,18.18
2017-09-22T11:10:51.737Z,18.51
2017-09-22T11:11:51.704Z,18.77
2017-09-22T11:12:51.786Z,19.13
2017-09-22T11:13:51.717Z,19.36
2017-09-22T11:14:51.742Z,19.51
2017-09-22T11:15:51.736Z,19.84
2017-09-22T11:16:51.779Z,20.25
2017-09-22T11:17:51.720Z,20.49
2017-09-22T11:18:51.770Z,20.77
2017-09-22T11:19:51.741Z,20.86
2017-09-22T11:20:51.768Z,21.20
2017-09-22T11:21:51.791Z,21.25
2017-09-22T11:22:51.749Z,21.35
2017-09-22T11:23:51.752Z,21.42
2017-09-22T11:24:51.695Z,21.27
2017-09-22T11:25:51.697Z,21.32
2017-09-22T11:26:51.755Z,21.57
2017-09-22T11:27:51.744Z,21.54
2017-09-22T11:28:51.798Z,21.65
2017-09-22T11:29:51.794Z,21.89
2017-09-22T11:30:51.746Z,21.84
2017-09-22T11:31:51.756Z,21.64
2017-09-22T11:32:51.761Z,21.75
2017-09-22T11:33:51.801Z,21.79
2017-09-22T11:34:51.739Z,21.67
2017-09-22T11:35:51.749Z,21.75
2017-09-22T11:36:51.696Z,21.86
2017-09-22T11:37:51.698Z,21.75
2017-09-22T11:38:51.800Z,21.25
2017-09-22T11:39:51.758Z,21.09
2017-09-22T11:40:51.797Z,20.94
2017-09-22T11:41:51.691Z,21.13
2017-09-22T11:42:51.722Z,21.25
2017-09-22T11:43:51.687Z,21.16
2017-09-22T11:44:51.717Z,21.04
2017-09-22T11:45:51.689Z,20.79
2017-09-22T11:46:51.693Z,20.68
2017-09-22T11:47:51.720Z,20.49
2017-09-22T11:48:51.751Z,20.17
2017-09-22T11:49:51.704Z,19.92
2017-09-22T11:50:51.721Z,19.96
2017-09-22T11:51:51.729Z,20.05
2017-09-22T11:52:51.735Z,20.18
2017-09-22T11:53:51.794Z,20.42
2017-09-22T11:54:51.752Z,20.52
2017-09-22T11:55:51.769Z,20.56
2017-09-22T11:56:51.757Z,20.36
2017-09-22T11:57:51.792Z,20.02
2017-09-22T11:58:51.731Z,19.73
2017-09-22T11:59:51.710Z,19.65
2017-09-22T12:00:51.744Z,19.74
2017-09-22T12:01:51.730Z,19.87
2017-09-22T12:02:51.750Z,19.87
2017-09-22T12:03:51.766Z,20.01
2017-09-22T12:04:51.748Z,20.14
2017-09-22T12:05:51.777Z,20.42
2017-09-22T12:06:51.750Z,20.65
2017-09-22T12:07:51.753Z,20.65
2017-09-22T12:08:51.772Z,20.68
2017-09-22T12:09:51.815Z,20.84
2017-09-22T12:10:51.732Z,20.99
2017-09-22T12:11:51.717Z,21.31
2017-09-22T12:12:51.754Z,21.65
2017-09-22T12:13:51.824Z,21.64
2017-09-22T12:14:51.770Z,21.75
2017-09-22T12:15:51.776Z,21.84
2017-09-22T12:16:51.722Z,21.84
2017-09-22T12:17:51.819Z,21.71
2017-09-22T12:18:51.739Z,21.54
2017-09-22T12:19:51.816Z,21.53
2017-09-22T12:20:51.779Z,21.29
2017-09-22T12:21:51.748Z,21.08
2017-09-22T12:22:51.756Z,20.88
2017-09-22T12:23:51.745Z,21.20
2017-09-22T12:24:51.789Z,21.27
2017-09-22T12:25:51.807Z,21.32
2017-09-22T12:26:51.748Z,21.06
2017-09-22T12:27:51.726Z,21.02
2017-09-22T12:28:51.729Z,20.91
2017-09-22T12:29:51.727Z,21.05
2017-09-22T12:30:51.828Z,21.27
2017-09-22T12:31:51.754Z,21.64
2017-09-22T12:32:51.751Z,21.69
2017-09-22T12:33:51.799Z,21.84
2017-09-22T12:34:51.820Z,21.84
2017-09-22T12:35:51.817Z,21.80
2017-09-22T12:36:51.755Z,21.98
2017-09-22T12:37:51.794Z,22.35
2017-09-22T12:38:51.817Z,22.52
2017-09-22T12:39:51.801Z,22.68
2017-09-22T12:40:51.769Z,22.61
2017-09-22T12:41:51.735Z,22.61
2017-09-22T12:42:51.818Z,22.72
2017-09-22T12:43:51.792Z,22.76
2017-09-22T12:44:51.837Z,22.54
2017-09-22T12:45:51.771Z,22.34
2017-09-22T12:46:51.758Z,22.32
2017-09-22T12:47:51.740Z,22.49
2017-09-22T12:48:51.791Z,22.71
2017-09-22T12:49:51.850Z,23.08
2017-09-22T12:50:51.742Z,23.23
2017-09-22T12:51:51.745Z,23.30
2017-09-22T12:52:51.797Z,23.34
2017-09-22T12:53:51.841Z,23.23
2017-09-22T12:54:51.799Z,23.20
2017-09-22T12:55:51.800Z,23.24
2017-09-22T12:56:51.803Z,23.22
2017-09-22T12:57:51.808Z,23.23
2017-09-22T12:58:51.847Z,23.23
2017-09-22T12:59:51.854Z,22.91
2017-09-22T13:00:51.848Z,22.42
2017-09-22T13:01:51.857Z,22.01
2017-09-22T13:02:51.814Z,21.97
2017-09-22T13:03:51.784Z,22.32
2017-09-22T13:04:51.808Z,22.60
2017-09-22T13:05:51.785Z,22.83
2017-09-22T13:06:51.860Z,22.93
2017-09-22T13:07:51.785Z,23.33
2017-09-22T13:08:51.782Z,23.57
2017-09-22T13:09:51.838Z,23.75
2017-09-22T13:10:51.819Z,23.94
2017-09-22T13:11:51.808Z,24.14